Etusivu
METAR-TAF:

METAR-TAF

Lentoasemat :

Savonlinna, Suomi

Savonlinnan lentoasema

Leveyspiiri: 61-57N, Pituuspiiri: 028-57E, korkeus merenpinnasta: 95 m

Tämänhetkinen sää

Tämä raportti tehtiin 26 minuuttia sitten, kello 18.20 UTC
Tuuli 1 kn lännestä/luoteesta
Lämpötila 14°C
Kosteus 88%
Ilmanpaine 1019 hPa
Näkyvyys 10 km tai enemmän
ei pilviä alle 1500 m:ssä eikä cumulonimbus-pilviä

METAR: EFSA 221820Z AUTO 29001KT CAVOK 14/12 Q1019

Aika: 21:46 (18:46 UTC)

Sääennuste

Tämä raportti tehtiin 4 tuntia ja 20 minuuttia sitten, kello 14.26 UTC
Ennuste voimassa 22. päivästä klo 15 UTC - 22. päivään klo 18 UTC
Tuuli 3 kn lännestä
Näkyvyys 10 km tai enemmän
ei pilviä alle 1500 m:ssä eikä cumulonimbus-pilviä

TAF: EFSA 221426Z 2215/2218 27003KT CAVOK

Säähavainnot ja -ennusteet yli 4000 lentoasemalta (METAR- ja TAF-raportit).

Käytössä olevat sääasemat on merkitty karttaan keltaisilla ja punaisilla pisteillä.

Aseta hiiri pisteen päälle nähdäksesi sääaseman nimen.

Klikkaa sitten nähdäksesi säähavainnot ja -ennusteet.

Kartan vaihtaminen: klikkaa mustalla rastilla varustettuja vihreitä pisteitä, niin voit zoomata sisään; viivalla varustettua vihreää pistettä, niin voit zoomata ulos tai vihreitä nuolia, niin pääset viereisille kartoille.


METAR-TAF: